createdAt,value
2017-08-01T00:01:49.413Z,6.50
2017-08-01T00:04:16.071Z,6.85
2017-08-01T00:06:42.749Z,6.75
2017-08-01T00:09:09.407Z,5.90
2017-08-01T00:11:36.095Z,7.80
2017-08-01T00:14:02.756Z,6.55
2017-08-01T00:16:29.415Z,6.70
2017-08-01T00:18:56.081Z,5.90
2017-08-01T00:21:22.743Z,6.93
2017-08-01T00:23:49.403Z,6.97
2017-08-01T00:26:16.066Z,6.55
2017-08-01T00:28:42.728Z,7.18
2017-08-01T00:31:09.423Z,6.25
2017-08-01T00:33:36.087Z,7.10
2017-08-01T00:36:02.746Z,6.82
2017-08-01T00:38:29.446Z,6.40
2017-08-01T00:40:56.113Z,6.72
2017-08-01T00:43:22.775Z,5.97
2017-08-01T00:45:49.430Z,5.25
2017-08-01T00:48:16.095Z,5.70
2017-08-01T00:50:42.773Z,5.80
2017-08-01T00:53:09.436Z,6.10
2017-08-01T00:55:36.100Z,4.97
2017-08-01T00:58:02.768Z,5.70
2017-08-01T01:00:29.430Z,5.40
2017-08-01T01:02:56.088Z,4.80
2017-08-01T01:05:22.771Z,4.32
2017-08-01T01:07:49.427Z,4.50
2017-08-01T01:10:16.115Z,4.75
2017-08-01T01:12:42.771Z,5.15
2017-08-01T01:15:09.436Z,4.40
2017-08-01T01:17:36.115Z,4.65
2017-08-01T01:20:02.775Z,3.90
2017-08-01T01:22:29.459Z,4.53
2017-08-01T01:24:56.120Z,4.62
2017-08-01T01:27:22.808Z,3.90
2017-08-01T01:29:49.472Z,3.90
2017-08-01T01:32:16.160Z,4.00
2017-08-01T01:34:42.820Z,3.95
2017-08-01T01:37:09.503Z,4.05
2017-08-01T01:39:36.173Z,4.37
2017-08-01T01:42:02.858Z,4.47
2017-08-01T01:44:29.522Z,4.60
2017-08-01T01:46:56.208Z,3.75
2017-08-01T01:49:22.893Z,3.72
2017-08-01T01:51:49.602Z,3.97
2017-08-01T01:54:16.267Z,4.32
2017-08-01T01:56:42.927Z,4.00
2017-08-01T01:59:09.590Z,4.40
2017-08-01T02:01:36.252Z,4.30
2017-08-01T02:04:02.941Z,4.28
2017-08-01T02:06:29.600Z,4.75
2017-08-01T02:08:56.278Z,4.30
2017-08-01T02:11:22.935Z,4.60
2017-08-01T02:13:49.616Z,4.32
2017-08-01T02:16:16.276Z,4.15
2017-08-01T02:18:42.963Z,4.53
2017-08-01T02:21:09.619Z,4.40
2017-08-01T02:23:36.303Z,4.60
2017-08-01T02:26:02.964Z,4.55
2017-08-01T02:28:29.623Z,3.95
2017-08-01T02:30:56.284Z,4.00
2017-08-01T02:33:22.947Z,4.28
2017-08-01T02:35:49.630Z,4.40
2017-08-01T02:38:16.288Z,4.87
2017-08-01T02:40:42.987Z,4.53
2017-08-01T02:43:09.652Z,4.20
2017-08-01T02:45:36.344Z,4.28
2017-08-01T02:48:03.003Z,4.90
2017-08-01T02:50:29.719Z,3.90
2017-08-01T02:52:56.404Z,4.10
2017-08-01T02:55:23.072Z,4.60
2017-08-01T02:57:49.736Z,4.60
2017-08-01T03:00:16.390Z,4.68
2017-08-01T03:02:43.060Z,4.53
2017-08-01T03:05:09.719Z,4.37
2017-08-01T03:07:36.380Z,4.28
2017-08-01T03:10:03.039Z,4.90
2017-08-01T03:12:29.715Z,4.68
2017-08-01T03:14:56.370Z,4.78
2017-08-01T03:17:23.055Z,5.18
2017-08-01T03:19:49.716Z,5.60
2017-08-01T03:22:16.399Z,4.90
2017-08-01T03:24:43.181Z,4.90
2017-08-01T03:27:09.867Z,4.72
2017-08-01T03:29:36.523Z,5.40
2017-08-01T03:32:03.183Z,4.60
2017-08-01T03:34:29.844Z,4.93
2017-08-01T03:36:56.507Z,4.80
2017-08-01T03:39:23.173Z,5.43
2017-08-01T03:41:49.830Z,5.35
2017-08-01T03:44:16.524Z,5.45
2017-08-01T03:46:43.183Z,6.28
2017-08-01T03:49:09.871Z,5.80
2017-08-01T03:51:36.536Z,5.12
2017-08-01T03:54:03.225Z,4.90
2017-08-01T03:56:29.891Z,5.05
2017-08-01T03:58:56.552Z,5.50
2017-08-01T04:01:23.213Z,5.55
2017-08-01T04:03:49.875Z,5.22
2017-08-01T04:06:16.539Z,5.47
2017-08-01T04:08:43.203Z,5.65
2017-08-01T04:11:09.874Z,6.12
2017-08-01T04:13:36.531Z,6.65
2017-08-01T04:16:03.211Z,5.45
2017-08-01T04:18:29.878Z,6.07
2017-08-01T04:20:56.600Z,5.40
2017-08-01T04:23:23.255Z,5.80
2017-08-01T04:25:49.959Z,5.40
2017-08-01T04:28:16.635Z,5.90
2017-08-01T04:30:43.293Z,5.20
2017-08-01T04:33:09.950Z,5.43
2017-08-01T04:35:36.611Z,5.78
2017-08-01T04:38:03.276Z,5.95
2017-08-01T04:40:29.931Z,5.85
2017-08-01T04:42:56.592Z,5.78
2017-08-01T04:45:23.261Z,5.62
2017-08-01T04:47:49.919Z,5.60
2017-08-01T04:50:16.575Z,5.50
2017-08-01T04:52:43.235Z,5.47
2017-08-01T04:55:09.900Z,6.60
2017-08-01T04:57:36.585Z,5.60
2017-08-01T05:00:03.252Z,5.70
2017-08-01T05:02:29.943Z,5.00
2017-08-01T05:04:56.610Z,6.70
2017-08-01T05:07:23.287Z,5.82
2017-08-01T05:09:49.953Z,5.97
2017-08-01T05:12:16.629Z,6.20
2017-08-01T05:14:43.286Z,5.55
2017-08-01T05:17:09.947Z,6.00
2017-08-01T05:19:36.607Z,6.30
2017-08-01T05:22:03.263Z,6.22
2017-08-01T05:24:29.927Z,6.12
2017-08-01T05:26:56.595Z,6.12
2017-08-01T05:29:23.270Z,6.47
2017-08-01T05:31:49.947Z,6.95
2017-08-01T05:34:16.705Z,6.53
2017-08-01T05:36:43.371Z,6.80
2017-08-01T05:39:10.063Z,6.90
2017-08-01T05:41:36.728Z,6.37
2017-08-01T05:44:03.420Z,5.97
2017-08-01T05:46:30.096Z,6.10
2017-08-01T05:48:56.760Z,6.10
2017-08-01T05:51:23.432Z,6.30
2017-08-01T05:53:50.087Z,6.50
2017-08-01T05:56:16.754Z,6.07
2017-08-01T05:58:43.403Z,5.53
2017-08-01T06:01:10.067Z,6.00
2017-08-01T06:03:36.733Z,5.30
2017-08-01T06:06:03.401Z,5.60
2017-08-01T06:08:30.057Z,5.20
2017-08-01T06:10:56.724Z,5.30
2017-08-01T06:13:23.379Z,5.23
2017-08-01T06:15:50.069Z,4.73
2017-08-01T06:18:16.734Z,4.90
2017-08-01T06:20:43.391Z,4.27
2017-08-01T06:23:10.061Z,5.23
2017-08-01T06:25:36.725Z,4.20
2017-08-01T06:28:03.384Z,4.30
2017-08-01T06:30:30.060Z,4.37
2017-08-01T06:32:56.763Z,4.53
2017-08-01T06:35:23.425Z,4.33
2017-08-01T06:37:50.112Z,4.40
2017-08-01T06:40:16.775Z,4.63
2017-08-01T06:42:43.461Z,4.40
2017-08-01T06:45:10.124Z,4.10
2017-08-01T06:47:36.810Z,4.40
2017-08-01T06:50:03.472Z,4.60
2017-08-01T06:52:30.140Z,4.10
2017-08-01T06:54:56.799Z,3.90
2017-08-01T06:57:23.455Z,3.90
2017-08-01T06:59:50.135Z,3.90
2017-08-01T07:02:16.793Z,4.17
2017-08-01T07:04:43.487Z,4.20
2017-08-01T07:07:10.143Z,4.60
2017-08-01T07:09:36.823Z,4.63
2017-08-01T07:12:03.491Z,4.33
2017-08-01T07:14:30.189Z,4.40
2017-08-01T07:16:56.888Z,3.97
2017-08-01T07:19:23.571Z,4.53
2017-08-01T07:21:50.231Z,4.60
2017-08-01T07:24:16.912Z,4.37
2017-08-01T07:26:43.568Z,3.80
2017-08-01T07:29:10.257Z,4.80
2017-08-01T07:31:36.929Z,3.80
2017-08-01T07:34:03.583Z,4.57
2017-08-01T07:36:30.294Z,4.30
2017-08-01T07:38:56.958Z,4.33
2017-08-01T07:41:23.651Z,4.37
2017-08-01T07:43:50.324Z,5.97
2017-08-01T07:46:18.843Z,4.87
2017-08-01T07:48:45.508Z,4.20
2017-08-01T07:51:12.193Z,4.67
2017-08-01T07:53:38.859Z,4.40
2017-08-01T07:56:05.548Z,5.03
2017-08-01T07:58:32.219Z,4.40
2017-08-01T08:00:58.874Z,4.20
2017-08-01T08:03:25.532Z,4.67
2017-08-01T08:05:52.196Z,4.27
2017-08-01T08:08:18.879Z,5.33
2017-08-01T08:10:45.544Z,4.33
2017-08-01T08:13:12.223Z,4.30
2017-08-01T08:15:38.904Z,4.87
2017-08-01T08:18:05.592Z,5.27
2017-08-01T08:20:32.260Z,4.83
2017-08-01T08:22:58.945Z,4.27
2017-08-01T08:25:25.608Z,4.47
2017-08-01T08:27:52.291Z,4.30
2017-08-01T08:30:18.947Z,4.37
2017-08-01T08:32:45.608Z,4.67
2017-08-01T08:35:12.290Z,4.40
2017-08-01T08:37:38.953Z,4.70
2017-08-01T08:40:05.611Z,4.80
2017-08-01T08:42:32.271Z,4.73
2017-08-01T08:44:58.959Z,4.43
2017-08-01T08:47:25.613Z,5.10
2017-08-01T08:49:52.307Z,5.17
2017-08-01T08:52:18.978Z,5.00
2017-08-01T08:54:45.664Z,5.10
2017-08-01T08:57:12.337Z,5.07
2017-08-01T08:59:39.012Z,5.10
2017-08-01T09:02:05.676Z,5.47
2017-08-01T09:04:32.335Z,5.00
2017-08-01T09:06:59.016Z,4.80
2017-08-01T09:09:25.679Z,5.77
2017-08-01T09:11:52.373Z,5.80
2017-08-01T09:14:19.106Z,5.80
2017-08-01T09:16:45.767Z,5.33
2017-08-01T09:19:12.437Z,5.63
2017-08-01T09:21:39.132Z,5.03
2017-08-01T09:24:05.804Z,5.20
2017-08-01T09:26:32.491Z,5.40
2017-08-01T09:28:59.149Z,5.20
2017-08-01T09:31:25.803Z,4.70
2017-08-01T09:33:52.459Z,4.70
2017-08-01T09:36:19.127Z,5.23
2017-08-01T09:38:45.791Z,5.43
2017-08-01T09:41:12.452Z,5.20
2017-08-01T09:43:39.132Z,5.80
2017-08-01T09:46:05.795Z,5.10
2017-08-01T09:48:32.471Z,5.13
2017-08-01T09:50:59.142Z,4.97
2017-08-01T09:53:25.869Z,5.00
2017-08-01T09:55:52.527Z,4.90
2017-08-01T09:58:19.213Z,5.27
2017-08-01T10:00:45.876Z,4.97
2017-08-01T10:03:12.531Z,4.83
2017-08-01T10:05:39.195Z,4.90
2017-08-01T10:08:05.864Z,5.20
2017-08-01T10:10:32.528Z,5.50
2017-08-01T10:12:59.192Z,4.70
2017-08-01T10:15:25.847Z,5.20
2017-08-01T10:17:52.507Z,5.30
2017-08-01T10:20:19.163Z,4.70
2017-08-01T10:22:45.823Z,4.80
2017-08-01T10:25:12.513Z,5.50
2017-08-01T10:27:39.180Z,5.83
2017-08-01T10:30:05.860Z,5.20
2017-08-01T10:32:32.522Z,4.90
2017-08-01T10:34:59.196Z,5.90
2017-08-01T10:37:25.858Z,5.70
2017-08-01T10:39:52.519Z,5.50
2017-08-01T10:42:19.176Z,5.80
2017-08-01T10:44:45.835Z,6.53
2017-08-01T10:47:12.502Z,5.07
2017-08-01T10:49:39.155Z,5.27
2017-08-01T10:52:05.812Z,5.20
2017-08-01T10:54:32.488Z,5.50
2017-08-01T10:56:59.204Z,5.27
2017-08-01T10:59:25.865Z,5.10
2017-08-01T11:01:52.537Z,4.90
2017-08-01T11:04:19.191Z,4.53
2017-08-01T11:06:45.850Z,5.20
2017-08-01T11:09:12.498Z,4.70
2017-08-01T11:11:40.107Z,4.93
2017-08-01T11:14:06.763Z,5.30
2017-08-01T11:16:33.429Z,5.60
2017-08-01T11:19:00.084Z,4.93
2017-08-01T11:21:26.747Z,4.77
2017-08-01T11:23:53.417Z,5.40
2017-08-01T11:26:20.079Z,5.53
2017-08-01T11:28:46.755Z,4.90
2017-08-01T11:31:13.416Z,5.17
2017-08-01T11:33:40.107Z,5.00
2017-08-01T11:36:06.763Z,4.70
2017-08-01T11:38:33.423Z,4.53
2017-08-01T11:41:00.083Z,5.20
2017-08-01T11:43:26.740Z,5.00
2017-08-01T11:45:53.396Z,4.67
2017-08-01T11:48:20.054Z,5.20
2017-08-01T11:50:46.712Z,5.30
2017-08-01T11:53:13.379Z,4.70
2017-08-01T11:55:40.048Z,4.77
2017-08-01T11:58:06.707Z,5.13
2017-08-01T12:00:33.372Z,5.57
2017-08-01T12:03:00.024Z,4.47
2017-08-01T12:05:26.679Z,4.50
2017-08-01T12:07:53.347Z,4.57
2017-08-01T12:10:20.007Z,4.50
2017-08-01T12:12:46.663Z,4.60
2017-08-01T12:15:13.476Z,4.90
2017-08-01T12:17:40.135Z,4.47
2017-08-01T12:20:06.799Z,4.13
2017-08-01T12:22:33.456Z,4.40
2017-08-01T12:25:00.115Z,4.40
2017-08-01T12:27:26.777Z,5.10
2017-08-01T12:29:53.439Z,4.30
2017-08-01T12:32:20.101Z,4.50
2017-08-01T12:34:47.572Z,4.60
2017-08-01T12:37:14.262Z,4.60
2017-08-01T12:39:40.919Z,4.07
2017-08-01T12:42:07.582Z,4.47
2017-08-01T12:44:34.256Z,4.73
2017-08-01T12:49:34.060Z,4.33
2017-08-01T12:52:00.758Z,4.30
2017-08-01T12:54:27.420Z,4.70
2017-08-01T12:56:54.075Z,4.60
2017-08-01T12:59:20.751Z,4.70
2017-08-01T13:01:47.416Z,4.03
2017-08-01T13:04:14.098Z,4.47
2017-08-01T13:06:40.773Z,4.33
2017-08-01T13:09:08.370Z,4.40
2017-08-01T13:11:35.167Z,4.43
2017-08-01T13:14:01.914Z,4.50
2017-08-01T13:16:28.600Z,4.03
2017-08-01T13:18:55.349Z,4.30
2017-08-01T13:21:22.026Z,4.37
2017-08-01T13:23:48.780Z,4.50
2017-08-01T13:26:15.457Z,4.73
2017-08-01T13:28:42.247Z,4.50
2017-08-01T13:31:08.932Z,4.20
2017-08-01T13:33:35.721Z,4.17
2017-08-01T13:36:02.628Z,4.50
2017-08-01T13:38:29.356Z,4.60
2017-08-01T13:40:56.099Z,4.63
2017-08-01T13:43:23.004Z,4.23
2017-08-01T13:45:49.728Z,4.40
2017-08-01T13:48:16.417Z,4.17
2017-08-01T13:50:43.131Z,4.33
2017-08-01T13:53:09.810Z,4.57
2017-08-01T13:55:36.564Z,4.37
2017-08-01T13:58:03.321Z,4.63
2017-08-01T14:00:30.037Z,3.90
2017-08-01T14:02:56.734Z,4.33
2017-08-01T14:05:23.458Z,4.13
2017-08-01T14:07:50.127Z,3.80
2017-08-01T14:10:16.792Z,4.60
2017-08-01T14:12:44.183Z,4.20
2017-08-01T14:15:10.886Z,6.77
2017-08-01T14:17:37.662Z,4.40
2017-08-01T14:20:04.337Z,4.80
2017-08-01T14:22:31.025Z,4.00
2017-08-01T14:24:57.695Z,4.00
2017-08-01T14:27:24.399Z,4.70
2017-08-01T14:29:51.053Z,3.83
2017-08-01T14:32:17.747Z,4.03
2017-08-01T14:34:44.418Z,4.13
2017-08-01T14:37:11.099Z,4.53
2017-08-01T14:39:37.759Z,5.13
2017-08-01T14:42:10.129Z,4.00
2017-08-01T14:44:44.611Z,4.57
2017-08-01T14:47:11.924Z,4.70
2017-08-01T14:49:38.598Z,4.60
2017-08-01T14:52:05.269Z,4.67
2017-08-01T14:54:31.932Z,5.00
2017-08-01T14:56:58.707Z,6.10
2017-08-01T14:59:25.407Z,5.60
2017-08-01T15:01:52.089Z,5.90
2017-08-01T15:04:18.790Z,5.97
2017-08-01T15:06:45.455Z,5.57
2017-08-01T15:09:12.172Z,6.70
2017-08-01T15:11:38.863Z,6.40
2017-08-01T15:14:05.558Z,6.87
2017-08-01T15:16:32.272Z,6.80
2017-08-01T15:18:58.972Z,7.20
2017-08-01T15:21:25.648Z,7.17
2017-08-01T15:23:52.305Z,7.70
2017-08-01T15:26:18.964Z,7.77
2017-08-01T15:28:45.642Z,8.00
2017-08-01T15:31:12.303Z,8.03
2017-08-01T15:33:38.983Z,8.13
2017-08-01T15:36:06.327Z,7.27
2017-08-01T15:38:32.997Z,7.90
2017-08-01T15:40:59.679Z,7.77
2017-08-01T15:43:26.427Z,7.90
2017-08-01T15:45:53.107Z,7.27
2017-08-01T15:48:19.839Z,8.23
2017-08-01T15:50:46.527Z,7.70
2017-08-01T15:53:13.200Z,7.40
2017-08-01T15:55:39.898Z,7.83
2017-08-01T15:58:06.555Z,7.33
2017-08-01T16:00:33.236Z,8.10
2017-08-01T16:02:59.895Z,7.43
2017-08-01T16:05:26.603Z,7.43
2017-08-01T16:07:53.263Z,9.27
2017-08-01T16:10:19.972Z,9.30
2017-08-01T16:12:46.632Z,9.50
2017-08-01T16:15:13.700Z,9.50
2017-08-01T16:17:40.361Z,7.57
2017-08-01T16:20:07.119Z,9.17
2017-08-01T16:22:33.801Z,9.33
2017-08-01T16:25:00.461Z,8.73
2017-08-01T16:27:27.147Z,8.50
2017-08-01T16:29:53.892Z,9.63
2017-08-01T16:32:20.579Z,9.77
2017-08-01T16:34:47.290Z,10.43
2017-08-01T16:37:13.986Z,10.07
2017-08-01T16:39:40.665Z,10.23
2017-08-01T16:42:07.394Z,12.80
2017-08-01T16:44:34.064Z,14.40
2017-08-01T16:47:00.731Z,13.90
2017-08-01T16:49:27.395Z,13.80
2017-08-01T16:51:54.065Z,15.50
2017-08-01T16:54:20.730Z,13.63
2017-08-01T16:56:47.391Z,15.17
2017-08-01T16:59:14.051Z,13.33
2017-08-01T17:01:40.711Z,13.93
2017-08-01T17:04:07.379Z,14.03
2017-08-01T17:06:34.051Z,15.50
2017-08-01T17:09:00.728Z,15.40
2017-08-01T17:11:27.396Z,14.80
2017-08-01T17:13:54.092Z,16.40
2017-08-01T17:16:20.756Z,15.97
2017-08-01T17:31:38.734Z,17.20
2017-08-01T17:34:05.419Z,17.07
2017-08-01T17:36:32.087Z,16.70
2017-08-01T17:38:58.792Z,17.70
2017-08-01T17:41:25.464Z,17.70
2017-08-01T17:43:52.137Z,15.87
2017-08-01T17:46:18.815Z,18.60
2017-08-01T17:48:45.485Z,16.90
2017-08-01T17:51:12.155Z,17.67
2017-08-01T17:53:38.826Z,18.53
2017-08-01T17:56:05.492Z,19.47
2017-08-01T17:58:32.165Z,19.03
2017-08-01T18:00:59.145Z,15.73
2017-08-01T18:03:25.935Z,11.77
2017-08-01T18:05:52.636Z,12.33
2017-08-01T18:08:19.307Z,11.57
2017-08-01T18:10:46.028Z,11.10
2017-08-01T18:13:12.691Z,10.43
2017-08-01T18:15:39.362Z,10.73
2017-08-01T18:18:06.032Z,10.73
2017-08-01T18:20:32.696Z,10.63
2017-08-01T18:22:59.362Z,9.87
2017-08-01T18:25:26.019Z,9.40
2017-08-01T18:27:52.686Z,10.10
2017-08-01T18:30:19.352Z,10.20
2017-08-01T18:32:46.014Z,9.90
2017-08-01T18:35:12.677Z,10.97
2017-08-01T18:37:39.344Z,10.77
2017-08-01T18:40:06.008Z,11.60
2017-08-01T18:42:32.678Z,10.43
2017-08-01T18:44:59.343Z,11.33
2017-08-01T18:47:26.013Z,10.80
2017-08-01T18:49:52.687Z,10.57
2017-08-01T18:52:19.388Z,10.50
2017-08-01T18:54:46.055Z,11.20
2017-08-01T18:57:12.812Z,11.40
2017-08-01T18:59:39.480Z,10.30
2017-08-01T19:02:06.175Z,10.70
2017-08-01T19:04:32.880Z,10.48
2017-08-01T19:06:59.587Z,10.52
2017-08-01T19:09:26.255Z,9.95
2017-08-01T19:11:52.915Z,9.83
2017-08-01T19:14:19.596Z,9.88
2017-08-01T19:16:46.272Z,10.98
2017-08-01T19:19:12.959Z,10.33
2017-08-01T19:21:39.639Z,10.75
2017-08-01T19:24:06.340Z,11.33
2017-08-01T19:26:32.999Z,11.20
2017-08-01T19:28:59.659Z,11.77
2017-08-01T19:31:26.323Z,10.97
2017-08-01T19:33:53.012Z,11.95
2017-08-01T19:36:19.684Z,12.50
2017-08-01T19:41:20.092Z,11.80
2017-08-01T19:43:46.763Z,11.73
2017-08-01T19:46:13.427Z,13.30
2017-08-01T19:48:40.087Z,12.77
2017-08-01T19:51:06.795Z,12.60
2017-08-01T19:53:33.460Z,13.00
2017-08-01T19:56:00.136Z,12.85
2017-08-01T19:58:26.812Z,13.80
2017-08-01T20:00:53.475Z,13.07
2017-08-01T20:03:20.151Z,13.50
2017-08-01T20:05:46.823Z,12.63
2017-08-01T20:08:13.503Z,13.57
2017-08-01T20:10:40.176Z,14.48
2017-08-01T20:13:06.857Z,13.52
2017-08-01T20:15:33.550Z,14.50
2017-08-01T20:18:00.225Z,13.85
2017-08-01T20:20:26.899Z,15.65
2017-08-01T20:22:53.567Z,14.40
2017-08-01T20:25:20.235Z,13.75
2017-08-01T20:27:46.903Z,16.08
2017-08-01T20:30:13.571Z,15.90
2017-08-01T20:32:40.283Z,15.50
2017-08-01T20:35:06.955Z,15.88
2017-08-01T20:37:33.626Z,16.35
2017-08-01T20:40:00.299Z,15.75
2017-08-01T20:42:26.972Z,14.70
2017-08-01T20:44:53.651Z,13.98
2017-08-01T20:47:20.319Z,14.65
2017-08-01T20:49:46.991Z,14.87
2017-08-01T20:52:13.663Z,15.25
2017-08-01T20:54:40.334Z,14.87
2017-08-01T20:57:07.022Z,14.98
2017-08-01T20:59:33.695Z,15.00
2017-08-01T21:02:00.378Z,17.27
2017-08-01T21:04:27.057Z,17.12
2017-08-01T21:06:53.731Z,18.60
2017-08-01T21:09:20.396Z,17.83
2017-08-01T21:11:47.062Z,16.98
2017-08-01T21:14:13.746Z,17.65
2017-08-01T21:16:40.439Z,18.42
2017-08-01T21:19:07.112Z,17.95
2017-08-01T21:21:33.808Z,17.95
2017-08-01T21:24:00.471Z,17.12
2017-08-01T21:26:27.164Z,19.62
2017-08-01T21:28:53.835Z,20.48
2017-08-01T21:31:20.515Z,19.87
2017-08-01T21:33:47.207Z,19.60
2017-08-01T21:36:13.876Z,21.12
2017-08-01T21:38:40.567Z,20.27
2017-08-01T21:41:07.235Z,21.45
2017-08-01T21:43:33.922Z,20.30
2017-08-01T21:46:00.591Z,21.37
2017-08-01T21:48:27.288Z,21.30
2017-08-01T21:50:53.983Z,20.75
2017-08-01T21:53:20.696Z,22.10
2017-08-01T21:55:47.364Z,19.45
2017-08-01T21:58:14.034Z,22.02
2017-08-01T22:00:40.712Z,20.42
2017-08-01T22:03:07.376Z,19.90
2017-08-01T22:05:34.068Z,19.35
2017-08-01T22:08:00.735Z,19.80
2017-08-01T22:10:27.423Z,20.62
2017-08-01T22:12:54.092Z,20.02
2017-08-01T22:15:20.784Z,19.98
2017-08-01T22:17:47.448Z,19.37
2017-08-01T22:20:14.134Z,21.75
2017-08-01T22:22:40.800Z,20.50
2017-08-01T22:25:07.491Z,21.37
2017-08-01T22:27:34.156Z,20.77
2017-08-01T22:30:00.859Z,18.87
2017-08-01T22:32:27.524Z,18.37
2017-08-01T22:34:54.190Z,18.90
2017-08-01T22:37:20.857Z,20.83
2017-08-01T22:39:47.524Z,21.12
2017-08-01T22:42:14.219Z,22.40
2017-08-01T22:44:40.884Z,21.98
2017-08-01T22:47:07.571Z,23.75
2017-08-01T22:49:34.230Z,24.12
2017-08-01T22:52:00.919Z,23.50
2017-08-01T22:54:27.588Z,23.10
2017-08-01T22:56:54.569Z,23.95
2017-08-01T22:59:21.235Z,24.00
2017-08-01T23:01:47.931Z,23.73
2017-08-01T23:04:14.600Z,24.73
2017-08-01T23:06:41.293Z,24.63
2017-08-01T23:09:07.965Z,24.12
2017-08-01T23:11:34.651Z,23.38
2017-08-01T23:14:01.320Z,22.83
2017-08-01T23:16:27.982Z,23.90
2017-08-01T23:18:54.672Z,23.20
2017-08-01T23:21:21.340Z,24.08
2017-08-01T23:23:48.036Z,24.42
2017-08-01T23:26:14.703Z,23.27
2017-08-01T23:28:41.420Z,24.00
2017-08-01T23:31:08.111Z,23.83
2017-08-01T23:33:34.803Z,23.33
2017-08-01T23:36:01.472Z,25.02
2017-08-01T23:38:28.148Z,24.90
2017-08-01T23:40:54.817Z,23.95
2017-08-01T23:43:21.518Z,24.65
2017-08-01T23:45:48.188Z,23.87
2017-08-01T23:48:14.859Z,26.12
2017-08-01T23:50:41.526Z,25.25
2017-08-01T23:53:08.190Z,27.10
2017-08-01T23:55:34.858Z,26.30
2017-08-01T23:58:01.524Z,26.58
